createdAt,value
2023-07-24T00:01:51.550Z,19.90
2023-07-24T00:04:20.286Z,19.80
2023-07-24T00:06:49.088Z,19.80
2023-07-24T00:09:17.997Z,19.80
2023-07-24T00:11:46.800Z,19.70
2023-07-24T00:14:15.589Z,19.80
2023-07-24T00:16:44.577Z,19.80
2023-07-24T00:19:14.783Z,19.70
2023-07-24T00:21:45.995Z,19.70
2023-07-24T00:24:14.713Z,19.60
2023-07-24T00:26:43.437Z,19.60
2023-07-24T00:29:12.290Z,19.60
2023-07-24T00:31:41.120Z,19.60
2023-07-24T00:34:13.165Z,19.60
2023-07-24T00:36:42.677Z,19.60
2023-07-24T00:39:11.481Z,19.60
2023-07-24T00:41:43.695Z,19.60
2023-07-24T00:44:12.549Z,19.60
2023-07-24T00:46:42.332Z,19.50
2023-07-24T00:49:13.210Z,19.50
2023-07-24T00:51:42.723Z,19.50
2023-07-24T00:54:11.603Z,19.50
2023-07-24T00:56:40.718Z,19.50
2023-07-24T00:59:10.897Z,19.40
2023-07-24T01:01:42.372Z,19.40
2023-07-24T01:04:11.456Z,19.40
2023-07-24T01:06:42.129Z,19.40
2023-07-24T01:09:11.788Z,19.40
2023-07-24T01:11:48.625Z,19.40
2023-07-24T01:14:28.519Z,19.40
2023-07-24T01:17:01.232Z,19.30
2023-07-24T01:19:39.950Z,19.30
2023-07-24T01:22:23.277Z,19.30
2023-07-24T01:25:19.379Z,19.30
2023-07-24T01:27:51.579Z,19.30
2023-07-24T01:30:22.435Z,19.30
2023-07-24T01:32:51.872Z,19.20
2023-07-24T01:35:21.040Z,19.20
2023-07-24T01:37:51.171Z,19.20
2023-07-24T01:40:22.374Z,19.20
2023-07-24T01:42:53.282Z,19.20
2023-07-24T01:45:34.531Z,19.20
2023-07-24T01:48:03.388Z,19.20
2023-07-24T01:50:32.266Z,19.20
2023-07-24T01:53:01.398Z,19.10
2023-07-24T01:55:30.229Z,19.10
2023-07-24T01:58:00.513Z,19.10
2023-07-24T02:00:29.584Z,19.10
2023-07-24T02:03:01.421Z,19.10
2023-07-24T02:05:33.540Z,19.10
2023-07-24T02:08:02.567Z,19.10
2023-07-24T02:10:31.410Z,19.10
2023-07-24T02:13:01.712Z,19.10
2023-07-24T02:15:30.588Z,19.10
2023-07-24T02:17:59.364Z,19.00
2023-07-24T02:20:28.230Z,19.00
2023-07-24T02:22:58.417Z,19.00
2023-07-24T02:25:28.393Z,19.00
2023-07-24T02:27:57.115Z,18.80
2023-07-24T02:30:27.732Z,18.90
2023-07-24T02:32:58.422Z,18.90
2023-07-24T02:35:27.527Z,18.90
2023-07-24T02:37:56.292Z,18.80
2023-07-24T02:40:25.208Z,18.80
2023-07-24T02:42:54.030Z,18.90
2023-07-24T02:45:22.772Z,18.80
2023-07-24T02:47:54.259Z,18.90
2023-07-24T02:50:23.137Z,18.80
2023-07-24T02:52:51.891Z,18.80
2023-07-24T02:55:20.773Z,18.80
2023-07-24T02:57:49.581Z,18.80
2023-07-24T03:00:20.815Z,18.80
2023-07-24T03:02:53.414Z,18.70
2023-07-24T03:05:23.376Z,18.70
2023-07-24T03:07:52.147Z,18.70
2023-07-24T03:10:22.809Z,18.70
2023-07-24T03:12:51.760Z,18.70
2023-07-24T03:15:21.145Z,18.70
2023-07-24T03:17:50.039Z,18.70
2023-07-24T03:20:22.636Z,18.70
2023-07-24T03:22:51.729Z,18.70
2023-07-24T03:25:20.476Z,18.70
2023-07-24T03:28:01.544Z,18.70
2023-07-24T03:30:30.414Z,18.70
2023-07-24T03:33:00.163Z,18.70
2023-07-24T03:35:30.391Z,18.70
2023-07-24T03:37:59.394Z,18.70
2023-07-24T03:40:28.604Z,18.70
2023-07-24T03:42:57.561Z,18.70
2023-07-24T03:45:26.361Z,18.70
2023-07-24T03:47:55.214Z,18.70
2023-07-24T03:50:26.189Z,18.70
2023-07-24T03:52:56.381Z,18.80
2023-07-24T03:55:25.193Z,18.80
2023-07-24T03:57:54.179Z,18.80
2023-07-24T04:00:23.109Z,18.80
2023-07-24T04:02:51.949Z,18.80
2023-07-24T04:05:21.699Z,18.80
2023-07-24T04:07:51.262Z,18.80
2023-07-24T04:10:21.709Z,18.80
2023-07-24T04:12:50.489Z,18.80
2023-07-24T04:15:51.626Z,18.80
2023-07-24T04:18:20.409Z,18.80
2023-07-24T04:20:54.556Z,18.90
2023-07-24T04:23:23.323Z,18.80
2023-07-24T04:25:53.993Z,18.80
2023-07-24T04:28:23.231Z,18.80
2023-07-24T04:30:53.631Z,18.90
2023-07-24T04:33:28.269Z,18.90
2023-07-24T04:36:01.232Z,18.90
2023-07-24T04:39:05.590Z,18.90
2023-07-24T04:41:35.949Z,18.90
2023-07-24T04:44:05.363Z,18.90
2023-07-24T04:46:34.477Z,18.90
2023-07-24T04:49:34.180Z,18.90
2023-07-24T04:53:18.906Z,19.00
2023-07-24T04:55:48.758Z,18.90
2023-07-24T04:58:19.146Z,19.00
2023-07-24T05:00:47.929Z,19.00
2023-07-24T05:03:18.546Z,19.00
2023-07-24T05:05:52.002Z,19.10
2023-07-24T05:09:42.565Z,19.00
2023-07-24T05:12:11.400Z,19.00
2023-07-24T05:14:41.747Z,19.00
2023-07-24T05:17:10.542Z,19.00
2023-07-24T05:19:39.342Z,19.00
2023-07-24T05:22:08.931Z,19.10
2023-07-24T05:24:37.889Z,19.10
2023-07-24T05:27:07.452Z,19.10
2023-07-24T05:29:36.389Z,19.20
2023-07-24T05:33:20.905Z,19.20
2023-07-24T05:36:17.195Z,19.20
2023-07-24T05:38:51.126Z,19.30
2023-07-24T05:41:20.072Z,19.20
2023-07-24T05:43:48.947Z,19.30
2023-07-24T05:46:17.816Z,19.30
2023-07-24T05:48:46.642Z,19.30
2023-07-24T05:51:46.956Z,19.30
2023-07-24T05:54:16.804Z,19.30
2023-07-24T05:56:45.872Z,19.30
2023-07-24T05:59:15.420Z,19.40
2023-07-24T06:01:44.344Z,19.40
2023-07-24T06:04:13.262Z,19.40
2023-07-24T06:06:43.218Z,19.40
2023-07-24T06:09:13.680Z,19.40
2023-07-24T06:11:42.665Z,19.50
2023-07-24T06:14:11.542Z,19.50
2023-07-24T06:16:40.802Z,19.50
2023-07-24T06:19:16.317Z,19.60
2023-07-24T06:21:45.174Z,19.60
2023-07-24T06:24:15.558Z,19.60
2023-07-24T06:26:44.494Z,19.60
2023-07-24T06:29:13.344Z,19.70
2023-07-24T06:31:42.153Z,19.70
2023-07-24T06:34:11.081Z,19.80
2023-07-24T06:36:39.978Z,19.70
2023-07-24T06:39:08.656Z,19.80
2023-07-24T06:41:38.906Z,19.80
2023-07-24T06:44:08.391Z,19.90
2023-07-24T06:46:37.262Z,20.00
2023-07-24T06:49:06.177Z,20.00
2023-07-24T06:51:35.072Z,20.00
2023-07-24T06:54:05.857Z,20.10
2023-07-24T06:56:35.042Z,20.10
2023-07-24T06:59:05.395Z,20.20
2023-07-24T07:01:34.373Z,20.30
2023-07-24T07:04:30.813Z,20.30
2023-07-24T07:07:02.670Z,20.40
2023-07-24T07:09:31.998Z,20.40
2023-07-24T07:12:02.450Z,20.50
2023-07-24T07:14:32.734Z,20.60
2023-07-24T07:17:01.774Z,20.70
2023-07-24T07:19:30.990Z,20.70
2023-07-24T07:21:59.665Z,20.70
2023-07-24T07:24:32.446Z,20.80
2023-07-24T07:27:01.454Z,20.80
2023-07-24T07:29:32.599Z,20.80
2023-07-24T07:32:01.839Z,20.90
2023-07-24T07:34:33.664Z,21.00
2023-07-24T07:37:02.618Z,21.00
2023-07-24T07:39:32.125Z,21.00
2023-07-24T07:42:12.330Z,21.00
2023-07-24T07:44:48.438Z,21.00
2023-07-24T07:47:17.666Z,21.10
2023-07-24T07:49:46.476Z,21.10
2023-07-24T07:52:18.265Z,21.30
2023-07-24T07:54:49.900Z,21.40
2023-07-24T07:57:18.980Z,21.40
2023-07-24T07:59:49.200Z,21.50
2023-07-24T08:02:18.076Z,21.50
2023-07-24T08:04:52.378Z,21.60
2023-07-24T08:07:21.318Z,21.50
2023-07-24T08:09:50.157Z,21.60
2023-07-24T08:12:19.014Z,21.70
2023-07-24T08:14:49.228Z,21.80
2023-07-24T08:17:18.501Z,21.80
2023-07-24T08:19:47.807Z,21.80
2023-07-24T08:22:16.620Z,22.10
2023-07-24T08:24:46.189Z,22.10
2023-07-24T08:27:15.433Z,22.30
2023-07-24T08:29:44.519Z,22.30
2023-07-24T08:32:15.206Z,22.50
2023-07-24T08:34:44.243Z,22.50
2023-07-24T08:37:14.627Z,22.80
2023-07-24T08:39:43.533Z,22.90
2023-07-24T08:42:14.168Z,22.80
2023-07-24T08:44:45.497Z,22.80
2023-07-24T08:47:18.109Z,22.90
2023-07-24T08:49:49.540Z,23.10
2023-07-24T08:52:34.512Z,23.00
2023-07-24T08:55:07.694Z,23.00
2023-07-24T08:57:36.852Z,23.00
2023-07-24T09:00:07.312Z,23.00
2023-07-24T09:02:38.276Z,23.10
2023-07-24T09:05:09.358Z,23.30
2023-07-24T09:07:39.436Z,23.20
2023-07-24T09:10:12.074Z,23.40
2023-07-24T09:12:43.517Z,23.40
2023-07-24T09:15:14.300Z,23.40
2023-07-24T09:17:53.161Z,23.30
2023-07-24T09:23:13.815Z,23.40
2023-07-24T09:25:46.434Z,23.50
2023-07-24T09:28:17.347Z,23.50
2023-07-24T09:30:57.040Z,23.50
2023-07-24T09:33:38.140Z,23.70
2023-07-24T09:36:09.835Z,23.60
2023-07-24T09:38:39.725Z,23.70
2023-07-24T09:41:10.097Z,23.60
2023-07-24T09:43:41.460Z,23.60
2023-07-24T09:46:12.086Z,23.70
2023-07-24T09:49:07.613Z,23.80
2023-07-24T09:51:34.862Z,23.80
2023-07-24T09:54:16.854Z,23.80
2023-07-24T09:56:51.900Z,23.80
2023-07-24T09:59:25.910Z,23.80
2023-07-24T10:01:56.358Z,23.80
2023-07-24T10:04:27.190Z,23.80
2023-07-24T10:06:57.233Z,23.80
2023-07-24T10:09:30.365Z,23.80
2023-07-24T10:12:00.436Z,24.00
2023-07-24T10:14:30.330Z,24.00
2023-07-24T10:16:59.423Z,24.00
2023-07-24T10:19:40.162Z,24.00
2023-07-24T10:22:09.387Z,24.00
2023-07-24T10:24:42.263Z,24.00
2023-07-24T10:27:11.901Z,23.80
2023-07-24T10:29:41.022Z,23.80
2023-07-24T10:32:20.481Z,23.70
2023-07-24T10:35:01.589Z,23.70
2023-07-24T10:37:38.800Z,23.60
2023-07-24T10:40:09.449Z,23.70
2023-07-24T10:42:38.147Z,23.60
2023-07-24T10:45:09.045Z,23.60
2023-07-24T10:47:38.391Z,23.50
2023-07-24T10:50:10.734Z,23.60
2023-07-24T10:52:39.590Z,23.60
2023-07-24T10:55:10.489Z,23.70
2023-07-24T10:57:39.415Z,24.10
2023-07-24T11:00:10.705Z,24.30
2023-07-24T11:02:39.546Z,24.40
2023-07-24T11:05:11.262Z,24.50
2023-07-24T11:07:40.385Z,24.60
2023-07-24T11:10:21.314Z,24.90
2023-07-24T11:12:51.943Z,25.00
2023-07-24T11:15:28.972Z,25.00
2023-07-24T11:17:57.964Z,24.90
2023-07-24T11:20:30.810Z,24.90
2023-07-24T11:23:00.890Z,24.90
2023-07-24T11:25:30.388Z,24.90
2023-07-24T11:27:59.316Z,25.00
2023-07-24T11:30:28.059Z,25.10
2023-07-24T11:33:00.371Z,25.10
2023-07-24T11:35:31.284Z,25.00
2023-07-24T11:38:00.110Z,25.00
2023-07-24T11:40:36.016Z,25.00
2023-07-24T11:43:05.734Z,25.10
2023-07-24T11:45:44.311Z,25.00
2023-07-24T11:48:14.442Z,25.10
2023-07-24T11:50:50.187Z,25.00
2023-07-24T11:53:24.565Z,25.00
2023-07-24T11:55:54.861Z,25.00
2023-07-24T11:58:24.259Z,24.90
2023-07-24T12:00:54.224Z,24.90
2023-07-24T12:03:23.952Z,24.90
2023-07-24T12:05:54.980Z,24.90
2023-07-24T12:08:33.342Z,24.90
2023-07-24T12:11:02.565Z,24.90
2023-07-24T12:13:33.675Z,24.90
2023-07-24T12:16:02.689Z,24.90
2023-07-24T12:18:31.902Z,24.80
2023-07-24T12:21:02.038Z,24.80
2023-07-24T12:23:30.717Z,24.70
2023-07-24T12:25:59.426Z,24.70
2023-07-24T12:28:28.245Z,24.70
2023-07-24T12:31:00.668Z,24.50
2023-07-24T12:33:29.633Z,24.50
2023-07-24T12:35:58.403Z,24.40
2023-07-24T12:38:28.644Z,24.40
2023-07-24T12:40:57.288Z,24.20
2023-07-24T12:43:26.024Z,24.10
2023-07-24T12:45:54.775Z,24.20
2023-07-24T12:48:23.695Z,24.10
2023-07-24T12:50:53.168Z,23.90
2023-07-24T12:53:22.125Z,23.60
2023-07-24T12:55:59.335Z,23.40
2023-07-24T12:58:28.178Z,23.40
2023-07-24T13:00:57.215Z,23.40
2023-07-24T13:03:26.681Z,23.50
2023-07-24T13:05:55.636Z,23.40
2023-07-24T13:08:27.225Z,23.30
2023-07-24T13:11:03.482Z,23.30
2023-07-24T13:13:32.933Z,23.50
2023-07-24T13:16:30.705Z,23.50
2023-07-24T13:19:02.866Z,23.60
2023-07-24T13:21:33.193Z,23.60
2023-07-24T13:24:50.401Z,23.50
2023-07-24T13:27:20.606Z,23.60
2023-07-24T13:29:49.558Z,23.50
2023-07-24T13:32:31.501Z,23.50
2023-07-24T13:35:03.714Z,23.70
2023-07-24T13:37:32.446Z,24.10
2023-07-24T13:40:01.118Z,24.40
2023-07-24T13:42:36.384Z,24.60
2023-07-24T13:45:32.527Z,24.80
2023-07-24T13:48:01.304Z,24.70
2023-07-24T13:50:30.192Z,24.70
2023-07-24T13:52:58.960Z,24.60
2023-07-24T13:55:31.906Z,24.50
2023-07-24T13:58:02.569Z,24.40
2023-07-24T14:00:33.071Z,24.30
2023-07-24T14:03:02.630Z,24.40
2023-07-24T14:05:34.023Z,24.40
2023-07-24T14:08:03.017Z,24.40
2023-07-24T14:10:32.210Z,24.70
2023-07-24T14:13:02.889Z,25.00
2023-07-24T14:15:32.325Z,25.10
2023-07-24T14:18:01.182Z,25.30
2023-07-24T14:20:30.174Z,25.50
2023-07-24T14:22:59.196Z,25.70
2023-07-24T14:25:31.090Z,25.80
2023-07-24T14:28:01.495Z,25.90
2023-07-24T14:30:30.548Z,25.80
2023-07-24T14:32:59.737Z,25.60
2023-07-24T14:35:34.575Z,25.40
2023-07-24T14:38:05.468Z,25.30
2023-07-24T14:40:35.440Z,25.20
2023-07-24T14:43:07.832Z,25.10
2023-07-24T14:45:37.309Z,25.00
2023-07-24T14:48:10.059Z,24.90
2023-07-24T14:50:45.103Z,25.00
2023-07-24T14:53:14.677Z,25.10
2023-07-24T14:55:46.039Z,25.20
2023-07-24T14:58:20.161Z,25.10
2023-07-24T15:01:15.880Z,25.20
2023-07-24T15:03:45.774Z,25.20
2023-07-24T15:06:14.530Z,25.30
2023-07-24T15:08:43.336Z,25.30
2023-07-24T15:11:12.792Z,25.20
2023-07-24T15:13:43.116Z,25.20
2023-07-24T15:16:11.923Z,25.10
2023-07-24T15:18:40.703Z,25.10
2023-07-24T15:21:10.269Z,25.20
2023-07-24T15:23:39.221Z,25.20
2023-07-24T15:26:08.142Z,25.20
2023-07-24T15:28:37.967Z,25.30
2023-07-24T15:31:11.736Z,25.30
2023-07-24T15:33:42.499Z,25.30
2023-07-24T15:36:13.693Z,25.30
2023-07-24T15:39:00.616Z,25.30
2023-07-24T15:41:30.126Z,25.20
2023-07-24T15:43:59.264Z,25.20
2023-07-24T15:46:33.172Z,25.20
2023-07-24T15:49:19.726Z,25.20
2023-07-24T15:51:50.331Z,25.30
2023-07-24T15:54:19.025Z,25.30
2023-07-24T15:56:48.109Z,25.30
2023-07-24T15:59:17.793Z,25.30
2023-07-24T16:01:49.139Z,25.20
2023-07-24T16:04:27.522Z,25.20
2023-07-24T16:06:57.210Z,25.10
2023-07-24T16:09:26.088Z,25.10
2023-07-24T16:11:54.921Z,25.10
2023-07-24T16:14:25.848Z,25.10
2023-07-24T16:16:56.513Z,25.10
2023-07-24T16:19:32.893Z,25.30
2023-07-24T16:22:55.397Z,25.30
2023-07-24T16:25:52.909Z,25.30
2023-07-24T16:28:22.013Z,25.30
2023-07-24T16:30:51.082Z,25.30
2023-07-24T16:33:24.348Z,25.20
2023-07-24T16:36:11.817Z,25.20
2023-07-24T16:38:41.156Z,25.10
2023-07-24T16:41:10.196Z,25.10
2023-07-24T16:43:40.456Z,25.00
2023-07-24T16:46:25.768Z,25.00
2023-07-24T16:48:57.384Z,24.90
2023-07-24T16:51:37.643Z,24.90
2023-07-24T16:54:06.590Z,24.80
2023-07-24T16:56:42.069Z,24.90
2023-07-24T16:59:11.246Z,24.80
2023-07-24T17:01:40.525Z,24.70
2023-07-24T17:04:11.108Z,24.60
2023-07-24T17:06:40.221Z,24.60
2023-07-24T17:09:09.233Z,24.60
2023-07-24T17:11:38.608Z,24.60
2023-07-24T17:14:08.755Z,24.60
2023-07-24T17:16:40.150Z,24.60
2023-07-24T17:19:12.117Z,24.50
2023-07-24T17:21:41.878Z,24.60
2023-07-24T17:24:12.789Z,24.50
2023-07-24T17:26:42.597Z,24.40
2023-07-24T17:29:11.760Z,24.40
2023-07-24T17:31:43.895Z,24.50
2023-07-24T17:34:14.095Z,24.50
2023-07-24T17:36:44.100Z,24.50
2023-07-24T17:39:12.844Z,24.50
2023-07-24T17:41:41.781Z,24.50
2023-07-24T17:44:10.531Z,24.40
2023-07-24T17:46:40.958Z,24.40
2023-07-24T17:49:09.819Z,24.50
2023-07-24T17:51:40.798Z,24.40
2023-07-24T17:54:09.825Z,24.40
2023-07-24T17:56:44.686Z,24.30
2023-07-24T17:59:14.685Z,24.30
2023-07-24T18:01:44.730Z,24.30
2023-07-24T18:04:15.814Z,24.30
2023-07-24T18:06:46.616Z,24.10
2023-07-24T18:09:21.444Z,24.10
2023-07-24T18:11:50.950Z,24.10
2023-07-24T18:14:21.728Z,24.10
2023-07-24T18:16:51.425Z,24.00
2023-07-24T18:19:21.834Z,24.00
2023-07-24T18:21:52.533Z,24.00
2023-07-24T18:24:22.010Z,24.00
2023-07-24T18:26:51.138Z,23.90
2023-07-24T18:29:20.485Z,23.90
2023-07-24T18:31:49.827Z,23.90
2023-07-24T18:34:20.593Z,23.90
2023-07-24T18:36:49.433Z,23.80
2023-07-24T18:39:19.722Z,23.80
2023-07-24T18:41:48.447Z,23.80
2023-07-24T18:44:18.115Z,23.80
2023-07-24T18:46:47.008Z,23.70
2023-07-24T18:49:15.943Z,23.60
2023-07-24T18:51:45.668Z,23.60
2023-07-24T18:54:15.773Z,23.60
2023-07-24T18:56:46.927Z,23.60
2023-07-24T18:59:17.489Z,23.50
2023-07-24T19:01:47.480Z,23.50
2023-07-24T19:04:16.477Z,23.50
2023-07-24T19:06:45.648Z,23.40
2023-07-24T19:09:14.843Z,23.20
2023-07-24T19:11:45.104Z,23.10
2023-07-24T19:14:14.086Z,23.00
2023-07-24T19:16:42.811Z,22.80
2023-07-24T19:19:12.627Z,22.70
2023-07-24T19:21:41.566Z,22.70
2023-07-24T19:24:23.033Z,22.90
2023-07-24T19:26:53.564Z,22.80
2023-07-24T19:29:22.282Z,22.90
2023-07-24T19:31:52.193Z,22.80
2023-07-24T19:34:21.214Z,22.80
2023-07-24T19:36:50.064Z,22.60
2023-07-24T19:39:18.991Z,22.30
2023-07-24T19:41:47.801Z,22.20
2023-07-24T19:44:18.720Z,22.30
2023-07-24T19:46:47.751Z,22.30
2023-07-24T19:49:16.631Z,22.10
2023-07-24T19:51:45.458Z,22.20
2023-07-24T19:54:14.268Z,22.30
2023-07-24T19:56:43.093Z,22.30
2023-07-24T19:59:11.949Z,22.30
2023-07-24T20:01:44.641Z,22.30
2023-07-24T20:04:14.930Z,22.20
2023-07-24T20:06:44.222Z,22.10
2023-07-24T20:09:14.026Z,22.20
2023-07-24T20:11:43.260Z,22.20
2023-07-24T20:14:12.445Z,22.30
2023-07-24T20:16:43.250Z,22.10
2023-07-24T20:19:12.496Z,22.00
2023-07-24T20:21:42.614Z,21.90
2023-07-24T20:24:13.979Z,22.10
2023-07-24T20:26:45.735Z,22.10
2023-07-24T20:29:15.559Z,22.00
2023-07-24T20:31:46.781Z,21.90
2023-07-24T20:34:16.342Z,22.00
2023-07-24T20:36:46.163Z,22.00
2023-07-24T20:39:18.537Z,22.00
2023-07-24T20:41:47.573Z,22.00
2023-07-24T20:44:16.679Z,22.00
2023-07-24T20:46:46.880Z,21.90
2023-07-24T20:49:15.657Z,21.90
2023-07-24T20:51:44.477Z,21.70
2023-07-24T20:54:13.734Z,21.70
2023-07-24T20:56:42.856Z,21.60
2023-07-24T20:59:11.620Z,21.40
2023-07-24T21:01:40.416Z,21.30
2023-07-24T21:04:10.583Z,21.40
2023-07-24T21:06:39.436Z,21.40
2023-07-24T21:09:08.177Z,21.50
2023-07-24T21:11:36.993Z,21.30
2023-07-24T21:14:05.926Z,21.40
2023-07-24T21:16:34.881Z,21.30
2023-07-24T21:19:03.849Z,21.30
2023-07-24T21:21:34.335Z,21.30
2023-07-24T21:24:03.138Z,21.20
2023-07-24T21:26:31.863Z,21.10
2023-07-24T21:29:00.710Z,21.10
2023-07-24T21:31:30.803Z,21.20
2023-07-24T21:34:00.816Z,21.20
2023-07-24T21:36:30.356Z,21.20
2023-07-24T21:39:02.949Z,21.00
2023-07-24T21:41:34.104Z,21.00
2023-07-24T21:44:04.743Z,21.00
2023-07-24T21:46:35.453Z,20.90
2023-07-24T21:49:08.932Z,20.90
2023-07-24T21:51:38.760Z,21.00
2023-07-24T21:54:10.365Z,20.90
2023-07-24T21:56:40.316Z,20.90
2023-07-24T21:59:10.909Z,20.80
2023-07-24T22:01:40.024Z,20.80
2023-07-24T22:04:11.507Z,20.80
2023-07-24T22:06:40.427Z,20.70
2023-07-24T22:09:10.989Z,20.60
2023-07-24T22:11:40.455Z,20.60
2023-07-24T22:14:09.722Z,20.60
2023-07-24T22:16:39.033Z,20.50
2023-07-24T22:19:08.223Z,20.50
2023-07-24T22:21:37.378Z,20.60
2023-07-24T22:24:07.282Z,20.50
2023-07-24T22:26:38.261Z,20.60
2023-07-24T22:29:07.621Z,20.50
2023-07-24T22:31:36.781Z,20.50
2023-07-24T22:34:05.905Z,20.40
2023-07-24T22:36:35.342Z,20.30
2023-07-24T22:39:07.536Z,20.30
2023-07-24T22:41:38.220Z,20.30
2023-07-24T22:44:08.769Z,20.20
2023-07-24T22:46:37.917Z,20.30
2023-07-24T22:49:07.151Z,20.20
2023-07-24T22:51:36.476Z,20.30
2023-07-24T22:54:06.312Z,20.30
2023-07-24T22:56:37.010Z,20.20
2023-07-24T22:59:22.680Z,20.10
2023-07-24T23:01:53.916Z,20.00
2023-07-24T23:04:25.578Z,20.00
2023-07-24T23:06:57.016Z,20.00
2023-07-24T23:09:26.755Z,20.10
2023-07-24T23:12:00.100Z,20.00
2023-07-24T23:14:31.749Z,20.00
2023-07-24T23:17:01.374Z,19.90
2023-07-24T23:19:30.884Z,19.90
2023-07-24T23:22:00.297Z,19.90
2023-07-24T23:24:29.882Z,19.80
2023-07-24T23:27:01.020Z,19.70
2023-07-24T23:29:30.471Z,19.80
2023-07-24T23:31:59.980Z,19.80
2023-07-24T23:34:31.473Z,19.80
2023-07-24T23:37:01.053Z,19.80
2023-07-24T23:39:30.415Z,19.80
2023-07-24T23:42:01.210Z,19.70
2023-07-24T23:44:30.916Z,19.80
2023-07-24T23:47:00.399Z,19.80
2023-07-24T23:49:29.640Z,19.60
2023-07-24T23:51:59.200Z,19.60
2023-07-24T23:54:28.429Z,19.60
2023-07-24T23:56:57.655Z,19.60
2023-07-24T23:59:27.909Z,19.70
